createdAt,value
2023-08-31T00:00:56.511Z,100855.75
2023-08-31T00:03:23.262Z,100863.38
2023-08-31T00:05:52.465Z,100862.97
2023-08-31T00:08:19.233Z,100863.78
2023-08-31T00:10:46.339Z,100870.34
2023-08-31T00:13:13.705Z,100866.72
2023-08-31T00:15:42.356Z,100858.38
2023-08-31T00:18:09.123Z,100854.91
2023-08-31T00:20:35.989Z,100854.06
2023-08-31T00:23:02.445Z,100855.31
2023-08-31T00:25:29.655Z,100853.78
2023-08-31T00:27:58.379Z,100854.63
2023-08-31T00:30:30.659Z,100855.31
2023-08-31T00:33:01.230Z,100853.38
2023-08-31T00:35:31.100Z,100851.28
2023-08-31T00:38:01.698Z,100860.34
2023-08-31T00:40:31.823Z,100860.03
2023-08-31T00:42:58.494Z,100864.09
2023-08-31T00:45:25.309Z,100861.88
2023-08-31T00:47:51.796Z,100863.25
2023-08-31T00:50:18.313Z,100862.84
2023-08-31T00:52:48.642Z,100857.84
2023-08-31T00:55:15.384Z,100858.38
2023-08-31T00:57:42.181Z,100855.31
2023-08-31T01:00:09.668Z,100853.09
2023-08-31T01:02:50.583Z,100852.53
2023-08-31T01:05:50.901Z,100854.19
2023-08-31T01:08:58.904Z,100857.50
2023-08-31T01:11:28.367Z,100855.31
2023-08-31T01:14:06.601Z,100853.78
2023-08-31T01:16:35.345Z,100855.59
2023-08-31T01:19:07.048Z,100858.09
2023-08-31T01:21:41.266Z,100852.13
2023-08-31T01:24:09.493Z,100858.38
2023-08-31T01:26:36.661Z,100857.09
2023-08-31T01:29:03.650Z,100856.41
2023-08-31T01:31:30.323Z,100858.63
2023-08-31T01:33:56.884Z,100862.25
2023-08-31T01:36:37.725Z,100850.31
2023-08-31T01:39:42.605Z,100856.72
2023-08-31T01:42:11.241Z,100857.84
2023-08-31T01:44:38.711Z,100858.66
2023-08-31T01:47:07.149Z,100856.72
2023-08-31T01:49:40.816Z,100870.19
2023-08-31T01:52:08.198Z,100873.09
2023-08-31T01:54:35.396Z,100885.59
2023-08-31T01:57:01.932Z,100887.56
2023-08-31T01:59:28.430Z,100892.16
2023-08-31T02:01:55.331Z,100886.13
2023-08-31T02:04:22.155Z,100886.41
2023-08-31T02:06:48.655Z,100902.94
2023-08-31T02:09:15.379Z,100886.81
2023-08-31T02:11:41.982Z,100860.75
2023-08-31T02:14:08.674Z,100884.69
2023-08-31T02:16:35.613Z,100877.13
2023-08-31T02:19:02.045Z,100880.19
2023-08-31T02:21:28.762Z,100881.03
2023-08-31T02:23:55.284Z,100887.69
2023-08-31T02:26:22.549Z,100876.25
2023-08-31T02:28:48.990Z,100888.50
2023-08-31T02:31:15.730Z,100889.47
2023-08-31T02:33:42.234Z,100894.31
2023-08-31T02:36:08.715Z,100883.19
2023-08-31T02:38:35.199Z,100880.81
2023-08-31T02:41:01.663Z,100883.78
2023-08-31T02:43:29.590Z,100869.03
2023-08-31T02:46:03.378Z,100880.72
2023-08-31T02:48:31.111Z,100879.38
2023-08-31T02:50:59.645Z,100870.72
2023-08-31T02:53:26.192Z,100873.53
2023-08-31T02:55:52.668Z,100871.31
2023-08-31T02:58:20.199Z,100868.25
2023-08-31T03:00:49.466Z,100881.06
2023-08-31T03:03:17.169Z,100868.00
2023-08-31T03:05:44.064Z,100872.44
2023-08-31T03:08:10.697Z,100875.22
2023-08-31T03:10:37.944Z,100867.44
2023-08-31T03:13:04.665Z,100876.50
2023-08-31T03:15:34.857Z,100869.41
2023-08-31T03:18:01.736Z,100873.56
2023-08-31T03:20:28.196Z,100865.09
2023-08-31T03:22:54.657Z,100873.31
2023-08-31T03:25:21.109Z,100873.03
2023-08-31T03:27:47.533Z,100888.59
2023-08-31T03:30:14.316Z,100886.25
2023-08-31T03:32:40.801Z,100889.72
2023-08-31T03:35:08.414Z,100881.91
2023-08-31T03:37:34.860Z,100869.97
2023-08-31T03:40:01.311Z,100870.25
2023-08-31T03:42:27.703Z,100856.34
2023-08-31T03:44:54.134Z,100867.50
2023-08-31T03:47:20.510Z,100873.06
2023-08-31T03:49:46.952Z,100880.03
2023-08-31T03:52:13.318Z,100907.13
2023-08-31T03:54:39.938Z,100897.25
2023-08-31T03:57:06.410Z,100900.88
2023-08-31T03:59:32.797Z,100901.44
2023-08-31T04:01:59.280Z,100903.38
2023-08-31T04:04:25.826Z,100899.22
2023-08-31T04:06:52.272Z,100897.53
2023-08-31T04:09:20.108Z,100899.50
2023-08-31T04:11:47.785Z,100895.88
2023-08-31T04:14:14.258Z,100905.31
2023-08-31T04:16:40.702Z,100902.53
2023-08-31T04:19:07.098Z,100901.59
2023-08-31T04:21:33.508Z,100906.00
2023-08-31T04:24:01.274Z,100896.97
2023-08-31T04:26:28.996Z,100895.00
2023-08-31T04:28:55.656Z,100898.22
2023-08-31T04:31:22.222Z,100896.41
2023-08-31T04:33:49.334Z,100899.88
2023-08-31T04:36:15.788Z,100903.38
2023-08-31T04:38:42.221Z,100921.72
2023-08-31T04:41:09.257Z,100918.25
2023-08-31T04:43:35.793Z,100918.41
2023-08-31T04:46:04.299Z,100920.88
2023-08-31T04:48:30.851Z,100920.63
2023-08-31T04:50:58.562Z,100924.78
2023-08-31T04:53:25.209Z,100931.72
2023-08-31T04:55:51.895Z,100928.81
2023-08-31T04:58:18.388Z,100942.88
2023-08-31T05:00:45.619Z,100946.19
2023-08-31T05:03:12.300Z,100951.47
2023-08-31T05:05:39.040Z,100955.78
2023-08-31T05:08:06.008Z,100961.75
2023-08-31T05:10:32.538Z,100962.47
2023-08-31T05:12:58.984Z,100963.47
2023-08-31T05:15:28.431Z,100966.78
2023-08-31T05:17:55.445Z,100965.81
2023-08-31T05:20:23.902Z,100966.50
2023-08-31T05:22:50.277Z,100973.47
2023-08-31T05:25:16.776Z,100966.25
2023-08-31T05:27:43.214Z,100968.31
2023-08-31T05:30:10.329Z,100974.00
2023-08-31T05:32:36.727Z,100966.78
2023-08-31T05:35:04.413Z,100974.25
2023-08-31T05:37:35.214Z,100967.28
2023-08-31T05:40:02.124Z,100963.50
2023-08-31T05:42:28.685Z,100965.25
2023-08-31T05:44:55.125Z,100965.94
2023-08-31T05:47:21.625Z,100967.47
2023-08-31T05:49:48.106Z,100972.91
2023-08-31T05:52:14.583Z,100975.25
2023-08-31T05:54:41.089Z,100976.91
2023-08-31T05:57:07.665Z,100981.94
2023-08-31T05:59:34.147Z,100996.38
2023-08-31T06:02:00.611Z,100991.63
2023-08-31T06:04:27.156Z,101006.25
2023-08-31T06:06:55.056Z,101020.09
2023-08-31T06:09:21.668Z,101013.41
2023-08-31T06:11:48.243Z,101016.63
2023-08-31T06:14:14.718Z,101014.28
2023-08-31T06:16:41.246Z,101009.00
2023-08-31T06:19:07.707Z,101003.69
2023-08-31T06:21:34.211Z,101014.97
2023-08-31T06:24:00.647Z,101010.66
2023-08-31T06:26:27.069Z,101013.97
2023-08-31T06:28:53.566Z,101016.72
2023-08-31T06:31:20.441Z,101016.84
2023-08-31T06:33:46.999Z,101015.56
2023-08-31T06:36:13.448Z,101011.94
2023-08-31T06:38:40.058Z,101013.06
2023-08-31T06:41:07.148Z,101008.50
2023-08-31T06:43:33.605Z,101003.50
2023-08-31T06:46:10.425Z,101009.91
2023-08-31T06:48:46.512Z,101011.75
2023-08-31T06:51:12.886Z,101011.84
2023-08-31T06:53:39.430Z,101008.34
2023-08-31T06:56:05.821Z,101009.22
2023-08-31T06:58:32.256Z,101030.41
2023-08-31T07:00:59.569Z,101028.28
2023-08-31T07:03:27.630Z,101032.88
2023-08-31T07:05:55.381Z,101032.94
2023-08-31T07:08:21.888Z,101034.59
2023-08-31T07:10:48.678Z,101033.38
2023-08-31T07:13:15.333Z,101051.78
2023-08-31T07:15:41.937Z,101042.69
2023-08-31T07:18:08.869Z,101047.19
2023-08-31T07:20:35.571Z,101038.78
2023-08-31T07:23:02.129Z,101039.72
2023-08-31T07:25:29.610Z,101055.59
2023-08-31T07:27:56.160Z,101045.81
2023-08-31T07:30:22.626Z,101052.03
2023-08-31T07:32:49.151Z,101059.53
2023-08-31T07:35:15.731Z,101067.69
2023-08-31T07:37:42.473Z,101076.88
2023-08-31T07:40:11.128Z,101055.41
2023-08-31T07:42:37.812Z,101059.78
2023-08-31T07:45:06.543Z,101062.91
2023-08-31T07:47:33.124Z,101058.34
2023-08-31T07:49:59.621Z,101063.25
2023-08-31T07:52:26.177Z,101074.84
2023-08-31T07:54:52.576Z,101076.25
2023-08-31T07:57:19.044Z,101075.72
2023-08-31T07:59:45.600Z,101080.88
2023-08-31T08:02:12.018Z,101075.13
2023-08-31T08:04:38.490Z,101076.38
2023-08-31T08:07:05.236Z,101081.94
2023-08-31T08:09:31.686Z,101080.97
2023-08-31T08:11:58.134Z,101085.00
2023-08-31T08:14:24.581Z,101083.66
2023-08-31T08:16:51.069Z,101090.84
2023-08-31T08:19:23.372Z,101086.06
2023-08-31T08:21:50.749Z,101087.47
2023-08-31T08:24:17.548Z,101091.69
2023-08-31T08:26:44.278Z,101098.25
2023-08-31T08:29:10.808Z,101100.34
2023-08-31T08:31:37.292Z,101095.31
2023-08-31T08:34:04.911Z,101104.19
2023-08-31T08:36:31.323Z,101107.16
2023-08-31T08:38:57.676Z,101109.66
2023-08-31T08:41:25.338Z,101104.34
2023-08-31T08:43:53.545Z,101107.88
2023-08-31T08:46:20.119Z,101106.28
2023-08-31T08:48:48.491Z,101118.25
2023-08-31T08:51:15.123Z,101114.09
2023-08-31T08:53:45.438Z,101114.47
2023-08-31T08:56:12.078Z,101112.75
2023-08-31T08:58:38.654Z,101105.53
2023-08-31T09:01:08.121Z,101110.97
2023-08-31T09:03:36.217Z,101105.25
2023-08-31T09:06:06.925Z,101105.16
2023-08-31T09:08:33.543Z,101109.47
2023-08-31T09:11:00.125Z,101104.88
2023-08-31T09:13:30.842Z,101103.16
2023-08-31T09:16:00.671Z,101099.72
2023-08-31T09:18:29.102Z,101099.13
2023-08-31T09:21:00.434Z,101100.81
2023-08-31T09:23:27.404Z,101102.03
2023-08-31T09:25:55.851Z,101104.00
2023-08-31T09:28:27.201Z,101103.22
2023-08-31T09:31:02.989Z,101110.22
2023-08-31T09:33:29.487Z,101103.47
2023-08-31T09:36:01.149Z,101104.28
2023-08-31T09:38:27.547Z,101116.00
2023-08-31T09:41:05.742Z,101113.00
2023-08-31T09:43:32.186Z,101115.41
2023-08-31T09:46:00.350Z,101113.50
2023-08-31T09:48:28.147Z,101116.19
2023-08-31T09:50:56.603Z,101107.31
2023-08-31T09:53:27.069Z,101098.75
2023-08-31T09:55:57.185Z,101098.97
2023-08-31T09:58:24.322Z,101103.72
2023-08-31T10:00:53.061Z,101098.88
2023-08-31T10:03:21.967Z,101107.72
2023-08-31T10:05:50.723Z,101113.13
2023-08-31T10:08:18.806Z,101107.28
2023-08-31T10:10:46.044Z,101107.97
2023-08-31T10:13:12.993Z,101113.22
2023-08-31T10:15:40.835Z,101101.03
2023-08-31T10:18:08.131Z,101102.50
2023-08-31T10:20:35.478Z,101094.66
2023-08-31T10:23:06.361Z,101098.72
2023-08-31T10:25:51.148Z,101102.84
2023-08-31T10:28:18.686Z,101105.22
2023-08-31T10:31:01.833Z,101110.91
2023-08-31T10:33:28.299Z,101102.41
2023-08-31T10:35:57.872Z,101098.06
2023-08-31T10:38:31.579Z,101106.34
2023-08-31T10:41:04.233Z,101101.13
2023-08-31T10:44:00.934Z,101102.00
2023-08-31T10:46:28.845Z,101105.00
2023-08-31T10:49:11.643Z,101099.00
2023-08-31T10:51:40.104Z,101098.06
2023-08-31T10:54:14.473Z,101095.84
2023-08-31T10:57:01.280Z,101087.22
2023-08-31T10:59:42.635Z,101099.81
2023-08-31T11:02:09.416Z,101096.50
2023-08-31T11:04:57.519Z,101093.44
2023-08-31T11:07:28.309Z,101097.63
2023-08-31T11:10:20.850Z,101101.31
2023-08-31T11:12:55.615Z,101092.00
2023-08-31T11:15:23.865Z,101094.34
2023-08-31T11:17:55.291Z,101115.22
2023-08-31T11:20:23.245Z,101101.91
2023-08-31T11:22:51.806Z,101102.06
2023-08-31T11:25:19.191Z,101103.66
2023-08-31T11:28:12.093Z,101111.97
2023-08-31T11:30:38.583Z,101110.47
2023-08-31T11:33:10.104Z,101120.53
2023-08-31T11:35:38.677Z,101101.31
2023-08-31T11:38:05.353Z,101106.50
2023-08-31T11:40:31.889Z,101101.56
2023-08-31T11:43:10.778Z,101120.59
2023-08-31T11:45:39.542Z,101124.53
2023-08-31T11:48:08.025Z,101107.28
2023-08-31T11:50:34.923Z,101111.50
2023-08-31T11:53:01.510Z,101117.34
2023-08-31T11:55:29.644Z,101112.41
2023-08-31T11:57:56.289Z,101110.06
2023-08-31T12:00:23.438Z,101101.13
2023-08-31T12:03:02.906Z,101112.94
2023-08-31T12:05:30.121Z,101108.13
2023-08-31T12:07:57.121Z,101111.09
2023-08-31T12:10:27.593Z,101104.13
2023-08-31T12:12:56.604Z,101110.25
2023-08-31T12:15:24.255Z,101104.88
2023-08-31T12:17:55.682Z,101101.53
2023-08-31T12:20:30.216Z,101108.22
2023-08-31T12:22:56.782Z,101104.84
2023-08-31T12:25:23.748Z,101110.78
2023-08-31T12:27:51.035Z,101106.22
2023-08-31T12:30:17.531Z,101119.88
2023-08-31T12:32:43.927Z,101123.72
2023-08-31T12:35:11.042Z,101112.25
2023-08-31T12:37:37.490Z,101119.56
2023-08-31T12:40:08.007Z,101121.03
2023-08-31T12:42:34.449Z,101122.44
2023-08-31T12:45:00.902Z,101116.00
2023-08-31T12:47:27.415Z,101121.09
2023-08-31T12:49:53.869Z,101115.66
2023-08-31T12:52:20.278Z,101122.13
2023-08-31T12:54:47.483Z,101110.19
2023-08-31T12:57:14.140Z,101122.78
2023-08-31T12:59:40.563Z,101132.78
2023-08-31T13:02:11.754Z,101133.38
2023-08-31T13:04:39.957Z,101131.34
2023-08-31T13:07:07.464Z,101134.09
2023-08-31T13:09:33.875Z,101131.28
2023-08-31T13:12:00.398Z,101137.34
2023-08-31T13:14:26.796Z,101137.25
2023-08-31T13:16:53.273Z,101139.16
2023-08-31T13:19:20.665Z,101128.66
2023-08-31T13:21:47.089Z,101134.16
2023-08-31T13:24:13.515Z,101137.34
2023-08-31T13:26:40.039Z,101135.69
2023-08-31T13:29:06.453Z,101130.38
2023-08-31T13:31:32.899Z,101132.53
2023-08-31T13:33:59.362Z,101135.84
2023-08-31T13:36:25.909Z,101127.81
2023-08-31T13:38:52.409Z,101129.97
2023-08-31T13:41:18.897Z,101137.56
2023-08-31T13:43:45.442Z,101136.59
2023-08-31T13:46:12.503Z,101136.81
2023-08-31T13:48:38.948Z,101130.34
2023-08-31T13:51:05.406Z,101145.31
2023-08-31T13:53:31.822Z,101144.31
2023-08-31T13:55:58.317Z,101135.31
2023-08-31T13:58:24.749Z,101146.03
2023-08-31T14:00:51.222Z,101136.19
2023-08-31T14:03:18.289Z,101138.44
2023-08-31T14:05:48.963Z,101149.03
2023-08-31T14:08:15.755Z,101144.44
2023-08-31T14:10:42.369Z,101142.78
2023-08-31T14:13:08.822Z,101137.13
2023-08-31T14:15:35.331Z,101146.66
2023-08-31T14:18:01.894Z,101143.97
2023-08-31T14:20:28.381Z,101139.69
2023-08-31T14:22:54.850Z,101141.88
2023-08-31T14:25:24.849Z,101147.97
2023-08-31T14:27:51.308Z,101143.25
2023-08-31T14:30:17.820Z,101147.94
2023-08-31T14:32:44.249Z,101150.81
2023-08-31T14:35:11.254Z,101149.06
2023-08-31T14:37:37.801Z,101151.94
2023-08-31T14:40:07.772Z,101156.66
2023-08-31T14:42:34.760Z,101155.94
2023-08-31T14:45:01.215Z,101158.13
2023-08-31T14:47:27.836Z,101159.88
2023-08-31T14:49:56.016Z,101155.81
2023-08-31T14:52:22.453Z,101160.25
2023-08-31T14:54:49.595Z,101154.53
2023-08-31T14:57:16.092Z,101153.97
2023-08-31T14:59:43.192Z,101162.94
2023-08-31T15:02:09.704Z,101170.84
2023-08-31T15:04:36.160Z,101168.56
2023-08-31T15:07:02.743Z,101163.47
2023-08-31T15:09:29.342Z,101162.38
2023-08-31T15:11:55.776Z,101166.91
2023-08-31T15:14:22.294Z,101160.25
2023-08-31T15:16:48.714Z,101163.47
2023-08-31T15:19:15.183Z,101179.72
2023-08-31T15:21:41.738Z,101169.13
2023-08-31T15:24:08.432Z,101167.16
2023-08-31T15:26:34.966Z,101168.88
2023-08-31T15:29:01.491Z,101175.38
2023-08-31T15:31:28.021Z,101174.03
2023-08-31T15:33:54.479Z,101181.59
2023-08-31T15:36:20.952Z,101179.94
2023-08-31T15:38:47.467Z,101178.88
2023-08-31T15:41:15.317Z,101179.50
2023-08-31T15:43:43.503Z,101180.16
2023-08-31T15:46:10.094Z,101179.38
2023-08-31T15:48:36.758Z,101176.34
2023-08-31T15:51:03.892Z,101176.91
2023-08-31T15:53:31.562Z,101175.34
2023-08-31T15:55:58.166Z,101173.69
2023-08-31T15:58:27.579Z,101175.44
2023-08-31T16:01:02.041Z,101173.94
2023-08-31T16:03:33.355Z,101175.44
2023-08-31T16:06:00.421Z,101181.19
2023-08-31T16:08:28.406Z,101176.56
2023-08-31T16:10:55.232Z,101182.59
2023-08-31T16:13:22.700Z,101180.59
2023-08-31T16:15:50.607Z,101170.34
2023-08-31T16:18:17.888Z,101179.88
2023-08-31T16:20:44.941Z,101185.63
2023-08-31T16:23:11.945Z,101181.59
2023-08-31T16:25:38.393Z,101180.59
2023-08-31T16:28:05.315Z,101183.97
2023-08-31T16:30:32.013Z,101190.50
2023-08-31T16:32:58.783Z,101192.03
2023-08-31T16:35:25.354Z,101188.69
2023-08-31T16:37:51.860Z,101187.03
2023-08-31T16:40:18.475Z,101193.53
2023-08-31T16:42:44.961Z,101184.56
2023-08-31T16:45:12.043Z,101192.38
2023-08-31T16:47:38.807Z,101192.94
2023-08-31T16:50:05.648Z,101190.44
2023-08-31T16:52:32.437Z,101187.41
2023-08-31T16:54:59.570Z,101185.31
2023-08-31T16:57:26.399Z,101188.69
2023-08-31T16:59:53.101Z,101191.91
2023-08-31T17:02:19.661Z,101190.81
2023-08-31T17:04:46.122Z,101190.84
2023-08-31T17:07:12.626Z,101195.44
2023-08-31T17:09:39.094Z,101193.56
2023-08-31T17:12:07.168Z,101191.72
2023-08-31T17:14:33.876Z,101189.84
2023-08-31T17:17:02.060Z,101192.56
2023-08-31T17:19:29.137Z,101192.94
2023-08-31T17:21:55.653Z,101190.91
2023-08-31T17:24:22.080Z,101199.75
2023-08-31T17:26:48.534Z,101190.00
2023-08-31T17:29:15.297Z,101190.13
2023-08-31T17:31:43.259Z,101196.13
2023-08-31T17:34:13.136Z,101197.63
2023-08-31T17:36:39.668Z,101194.50
2023-08-31T17:39:06.141Z,101199.63
2023-08-31T17:41:32.565Z,101199.16
2023-08-31T17:43:58.994Z,101199.28
2023-08-31T17:46:25.843Z,101198.59
2023-08-31T17:48:52.545Z,101207.38
2023-08-31T17:51:19.008Z,101211.19
2023-08-31T17:53:46.164Z,101205.78
2023-08-31T17:56:12.659Z,101206.09
2023-08-31T17:58:39.079Z,101210.03
2023-08-31T18:01:05.662Z,101217.75
2023-08-31T18:03:33.027Z,101215.03
2023-08-31T18:05:59.567Z,101212.53
2023-08-31T18:08:28.052Z,101218.94
2023-08-31T18:10:55.318Z,101218.41
2023-08-31T18:13:22.194Z,101213.00
2023-08-31T18:15:51.517Z,101214.94
2023-08-31T18:18:19.528Z,101216.72
2023-08-31T18:20:46.208Z,101212.59
2023-08-31T18:23:12.756Z,101214.09
2023-08-31T18:25:39.280Z,101212.81
2023-08-31T18:28:05.916Z,101211.09
2023-08-31T18:30:32.364Z,101212.94
2023-08-31T18:33:02.776Z,101217.34
2023-08-31T18:35:29.264Z,101216.44
2023-08-31T18:37:55.648Z,101215.66
2023-08-31T18:40:22.189Z,101220.19
2023-08-31T18:42:48.647Z,101228.31
2023-08-31T18:45:18.801Z,101227.81
2023-08-31T18:47:46.661Z,101231.38
2023-08-31T18:50:21.167Z,101229.53
2023-08-31T18:52:48.732Z,101229.31
2023-08-31T18:55:16.662Z,101233.78
2023-08-31T18:57:46.817Z,101243.41
2023-08-31T19:00:15.238Z,101238.00
2023-08-31T19:02:43.875Z,101241.34
2023-08-31T19:05:11.919Z,101243.84
2023-08-31T19:07:39.112Z,101242.03
2023-08-31T19:10:08.999Z,101246.22
2023-08-31T19:12:36.802Z,101250.84
2023-08-31T19:15:04.325Z,101250.28
2023-08-31T19:17:30.881Z,101246.53
2023-08-31T19:19:57.573Z,101254.75
2023-08-31T19:22:24.257Z,101250.56
2023-08-31T19:24:52.082Z,101260.47
2023-08-31T19:27:18.794Z,101259.78
2023-08-31T19:29:46.103Z,101256.97
2023-08-31T19:32:12.679Z,101264.25
2023-08-31T19:34:39.231Z,101272.31
2023-08-31T19:37:05.980Z,101267.03
2023-08-31T19:39:32.439Z,101271.19
2023-08-31T19:42:02.052Z,101273.16
2023-08-31T19:44:28.566Z,101271.75
2023-08-31T19:46:56.196Z,101272.19
2023-08-31T19:49:25.579Z,101262.84
2023-08-31T19:51:52.064Z,101260.56
2023-08-31T19:54:18.494Z,101266.44
2023-08-31T19:56:44.982Z,101265.16
2023-08-31T19:59:11.454Z,101268.38
2023-08-31T20:01:40.420Z,101267.97
2023-08-31T20:04:07.162Z,101270.06
2023-08-31T20:06:33.761Z,101264.19
2023-08-31T20:09:00.550Z,101267.94
2023-08-31T20:11:27.056Z,101271.94
2023-08-31T20:13:58.741Z,101279.91
2023-08-31T20:16:26.569Z,101279.22
2023-08-31T20:18:53.829Z,101278.66
2023-08-31T20:21:20.316Z,101278.38
2023-08-31T20:23:46.951Z,101272.94
2023-08-31T20:26:13.383Z,101279.63
2023-08-31T20:28:39.857Z,101279.31
2023-08-31T20:31:07.621Z,101274.47
2023-08-31T20:33:35.422Z,101278.34
2023-08-31T20:36:09.687Z,101287.28
2023-08-31T20:38:37.261Z,101278.34
2023-08-31T20:41:04.864Z,101277.66
2023-08-31T20:43:34.106Z,101276.66
2023-08-31T20:46:07.240Z,101271.13
2023-08-31T20:48:37.932Z,101278.09
2023-08-31T20:51:06.303Z,101285.34
2023-08-31T20:53:35.556Z,101292.31
2023-08-31T20:56:09.560Z,101282.28
2023-08-31T20:58:36.901Z,101288.09
2023-08-31T21:01:11.273Z,101288.00
2023-08-31T21:03:40.052Z,101281.72
2023-08-31T21:06:10.792Z,101280.75
2023-08-31T21:08:39.222Z,101288.94
2023-08-31T21:11:05.751Z,101285.59
2023-08-31T21:13:37.256Z,101281.97
2023-08-31T21:16:08.088Z,101277.38
2023-08-31T21:18:37.050Z,101286.44
2023-08-31T21:21:04.526Z,101284.63
2023-08-31T21:23:31.254Z,101290.63
2023-08-31T21:26:06.196Z,101288.94
2023-08-31T21:28:33.558Z,101286.44
2023-08-31T21:31:02.547Z,101282.81
2023-08-31T21:33:30.370Z,101282.53
2023-08-31T21:35:56.849Z,101277.53
2023-08-31T21:38:23.371Z,101287.59
2023-08-31T21:40:50.104Z,101283.97
2023-08-31T21:43:17.447Z,101289.00
2023-08-31T21:45:43.981Z,101277.59
2023-08-31T21:48:10.463Z,101277.16
2023-08-31T21:50:40.108Z,101278.72
2023-08-31T21:53:07.944Z,101286.22
2023-08-31T21:55:35.019Z,101282.31
2023-08-31T21:58:01.498Z,101284.88
2023-08-31T22:00:28.010Z,101286.22
2023-08-31T22:02:54.821Z,101276.47
2023-08-31T22:05:26.182Z,101274.81
2023-08-31T22:07:54.286Z,101282.91
2023-08-31T22:10:21.156Z,101279.56
2023-08-31T22:12:47.651Z,101274.81
2023-08-31T22:15:16.539Z,101282.06
2023-08-31T22:17:44.415Z,101280.38
2023-08-31T22:20:13.859Z,101283.75
2023-08-31T22:22:41.282Z,101275.09
2023-08-31T22:25:08.719Z,101276.22
2023-08-31T22:27:35.743Z,101279.28
2023-08-31T22:30:03.897Z,101283.75
2023-08-31T22:32:31.038Z,101282.22
2023-08-31T22:34:57.561Z,101284.28
2023-08-31T22:37:27.020Z,101287.34
2023-08-31T22:39:53.588Z,101292.34
2023-08-31T22:42:20.092Z,101292.06
2023-08-31T22:44:46.941Z,101297.66
2023-08-31T22:47:13.437Z,101293.06
2023-08-31T22:49:40.059Z,101285.09
2023-08-31T22:52:10.822Z,101285.09
2023-08-31T22:54:41.183Z,101276.34
2023-08-31T22:57:07.813Z,101272.84
2023-08-31T22:59:34.825Z,101278.16
2023-08-31T23:02:01.746Z,101265.59
2023-08-31T23:04:28.413Z,101260.75
2023-08-31T23:06:54.832Z,101254.47
2023-08-31T23:09:21.960Z,101263.13
2023-08-31T23:11:50.583Z,101265.06
2023-08-31T23:14:17.424Z,101275.94
2023-08-31T23:16:43.932Z,101277.06
2023-08-31T23:19:10.417Z,101274.53
2023-08-31T23:21:43.035Z,101268.53
2023-08-31T23:24:10.219Z,101265.22
2023-08-31T23:26:36.770Z,101260.47
2023-08-31T23:29:03.286Z,101271.75
2023-08-31T23:31:29.842Z,101258.94
2023-08-31T23:33:56.502Z,101258.25
2023-08-31T23:36:22.941Z,101259.19
2023-08-31T23:38:51.575Z,101266.19
2023-08-31T23:41:19.862Z,101265.47
2023-08-31T23:43:46.786Z,101272.72
2023-08-31T23:46:13.399Z,101266.72
2023-08-31T23:48:40.046Z,101266.00
2023-08-31T23:51:06.560Z,101270.63
2023-08-31T23:53:34.662Z,101268.94
2023-08-31T23:56:07.437Z,101263.66
2023-08-31T23:58:34.296Z,101253.75
